Lola, Kentucky
Current Conditions -  °F | °C
As of 2:15 AM on Sunday 26 Oct 2014 (Local Time) from K5M9 Reporting Station
Haze Haze  
Wind Chill: 54°   Ceiling: Unl
Heat Index: 54°   Visibility: 4mi
Dew Point: 54°   Wind: 3mph
Humidity: 99%   Direction: 240°WSW
Pressure: 30.01"   Gusts: NA
Location:  37.241°N, 88.2785°W
Report Text: K5M9 260715Z AUTO 24003KT 4SM BR CLR 12/12 A3001 RMK AO2 T01220121
Loading
Personal Weather Stations






























Interactive Weather Map
Tropical Storm Tracking
New forecast layout! Learn more

10-Day Weather Forecast

Advertisements
Track Severe Weather on mobile